sensor_id;sensor_type;location;lat;lon;timestamp;pressure;altitude;pressure_sealevel;temperature;humidity
78123;BME280;67376;44.802;10.332;2023-05-19T00:00:47;101264.22;;;19.33;53.66
78123;BME280;67376;44.802;10.332;2023-05-19T00:03:13;101263.19;;;19.34;53.80
78123;BME280;67376;44.802;10.332;2023-05-19T00:05:41;101253.63;;;19.32;53.63
78123;BME280;67376;44.802;10.332;2023-05-19T00:08:09;101255.50;;;19.31;53.98
78123;BME280;67376;44.802;10.332;2023-05-19T00:10:35;101256.31;;;19.32;54.08
78123;BME280;67376;44.802;10.332;2023-05-19T00:13:01;101250.91;;;19.32;53.96
78123;BME280;67376;44.802;10.332;2023-05-19T00:15:27;101250.91;;;19.32;54.54
78123;BME280;67376;44.802;10.332;2023-05-19T00:17:52;101255.28;;;19.33;54.44
78123;BME280;67376;44.802;10.332;2023-05-19T00:20:20;101247.59;;;19.30;54.40
78123;BME280;67376;44.802;10.332;2023-05-19T00:22:45;101249.25;;;19.31;54.75
78123;BME280;67376;44.802;10.332;2023-05-19T00:25:11;101249.25;;;19.31;54.59
78123;BME280;67376;44.802;10.332;2023-05-19T00:27:36;101253.00;;;19.30;54.80
78123;BME280;67376;44.802;10.332;2023-05-19T00:30:02;101255.50;;;19.31;54.19
78123;BME280;67376;44.802;10.332;2023-05-19T00:32:28;101246.53;;;19.31;54.20
78123;BME280;67376;44.802;10.332;2023-05-19T00:34:53;101252.78;;;19.31;54.53
78123;BME280;67376;44.802;10.332;2023-05-19T00:37:18;101247.38;;;19.31;53.98
78123;BME280;67376;44.802;10.332;2023-05-19T00:39:44;101248.19;;;19.32;54.49
78123;BME280;67376;44.802;10.332;2023-05-19T00:42:10;101243.00;;;19.30;54.87
78123;BME280;67376;44.802;10.332;2023-05-19T00:44:39;101242.16;;;19.30;54.28
78123;BME280;67376;44.802;10.332;2023-05-19T00:47:06;101243.81;;;19.31;54.79
78123;BME280;67376;44.802;10.332;2023-05-19T00:49:31;101243.81;;;19.31;54.74
78123;BME280;67376;44.802;10.332;2023-05-19T00:51:56;101248.41;;;19.30;55.01
78123;BME280;67376;44.802;10.332;2023-05-19T00:54:23;101244.03;;;19.29;54.68
78123;BME280;67376;44.802;10.332;2023-05-19T00:56:48;101237.78;;;19.29;54.02
78123;BME280;67376;44.802;10.332;2023-05-19T00:59:14;101244.03;;;19.29;54.88
78123;BME280;67376;44.802;10.332;2023-05-19T01:01:40;101235.91;;;19.29;54.30
78123;BME280;67376;44.802;10.332;2023-05-19T01:04:05;101244.88;;;19.30;54.92
78123;BME280;67376;44.802;10.332;2023-05-19T01:06:35;101246.75;;;19.29;54.31
78123;BME280;67376;44.802;10.332;2023-05-19T01:09:03;101242.16;;;19.30;54.27
78123;BME280;67376;44.802;10.332;2023-05-19T01:11:29;101235.91;;;19.29;54.40
78123;BME280;67376;44.802;10.332;2023-05-19T01:13:54;101244.03;;;19.29;55.02
78123;BME280;67376;44.802;10.332;2023-05-19T01:19:09;101240.50;;;19.29;55.11
78123;BME280;67376;44.802;10.332;2023-05-19T01:22:15;101236.13;;;19.28;54.69
78123;BME280;67376;44.802;10.332;2023-05-19T01:27:38;101229.69;;;19.29;55.42
78123;BME280;67376;44.802;10.332;2023-05-19T01:32:40;101230.50;;;19.29;54.85
78123;BME280;67376;44.802;10.332;2023-05-19T01:35:07;101241.34;;;19.29;54.78
78123;BME280;67376;44.802;10.332;2023-05-19T01:37:33;101235.91;;;19.29;54.29
78123;BME280;67376;44.802;10.332;2023-05-19T01:39:59;101235.91;;;19.29;55.04
78123;BME280;67376;44.802;10.332;2023-05-19T01:42:26;101235.91;;;19.29;54.55
78123;BME280;67376;44.802;10.332;2023-05-19T01:44:52;101249.25;;;19.31;55.41
78123;BME280;67376;44.802;10.332;2023-05-19T01:47:18;101244.88;;;19.30;54.66
78123;BME280;67376;44.802;10.332;2023-05-19T01:49:43;101241.13;;;19.31;54.59
78123;BME280;67376;44.802;10.332;2023-05-19T01:52:09;101245.69;;;19.30;55.26
78123;BME280;67376;44.802;10.332;2023-05-19T01:54:34;101238.63;;;19.29;55.54
78123;BME280;67376;44.802;10.332;2023-05-19T02:00:12;101241.13;;;19.31;55.55
78123;BME280;67376;44.802;10.332;2023-05-19T02:05:53;101237.59;;;19.30;54.76
78123;BME280;67376;44.802;10.332;2023-05-19T02:08:26;101238.63;;;19.29;55.01
78123;BME280;67376;44.802;10.332;2023-05-19T02:10:57;101233.22;;;19.29;55.52
78123;BME280;67376;44.802;10.332;2023-05-19T02:13:30;101224.25;;;19.29;55.06
78123;BME280;67376;44.802;10.332;2023-05-19T02:16:02;101229.69;;;19.29;55.08
78123;BME280;67376;44.802;10.332;2023-05-19T02:18:29;101229.69;;;19.29;55.05
78123;BME280;67376;44.802;10.332;2023-05-19T02:20:54;101222.38;;;19.29;54.79
78123;BME280;67376;44.802;10.332;2023-05-19T02:23:20;101226.97;;;19.29;55.07
78123;BME280;67376;44.802;10.332;2023-05-19T02:25:45;101226.97;;;19.29;55.53
78123;BME280;67376;44.802;10.332;2023-05-19T02:28:10;101234.03;;;19.30;55.20
78123;BME280;67376;44.802;10.332;2023-05-19T02:30:36;101230.28;;;19.31;55.41
78123;BME280;67376;44.802;10.332;2023-05-19T02:33:01;101236.75;;;19.30;55.10
78123;BME280;67376;44.802;10.332;2023-05-19T02:35:27;101233.22;;;19.29;55.85
78123;BME280;67376;44.802;10.332;2023-05-19T02:37:52;101227.59;;;19.31;55.12
78123;BME280;67376;44.802;10.332;2023-05-19T02:40:18;101229.69;;;19.29;55.73
78123;BME280;67376;44.802;10.332;2023-05-19T02:42:43;101227.81;;;19.29;55.91
78123;BME280;67376;44.802;10.332;2023-05-19T02:45:09;101227.81;;;19.29;55.08
78123;BME280;67376;44.802;10.332;2023-05-19T02:47:35;101225.94;;;19.30;55.06
78123;BME280;67376;44.802;10.332;2023-05-19T02:50:00;101232.16;;;19.30;54.92
78123;BME280;67376;44.802;10.332;2023-05-19T02:52:25;101233.00;;;19.31;55.18
78123;BME280;67376;44.802;10.332;2023-05-19T02:54:51;101232.78;;;19.32;55.45
78123;BME280;67376;44.802;10.332;2023-05-19T02:57:16;101225.72;;;19.31;55.00
78123;BME280;67376;44.802;10.332;2023-05-19T02:59:41;101235.69;;;19.31;56.00
78123;BME280;67376;44.802;10.332;2023-05-19T03:02:07;101234.03;;;19.30;55.47
78123;BME280;67376;44.802;10.332;2023-05-19T03:04:32;101229.69;;;19.29;55.88
78123;BME280;67376;44.802;10.332;2023-05-19T03:07:06;101235.91;;;19.29;55.25
78123;BME280;67376;44.802;10.332;2023-05-19T03:09:36;101236.97;;;19.28;55.29
78123;BME280;67376;44.802;10.332;2023-05-19T03:12:01;101232.38;;;19.29;55.26
78123;BME280;67376;44.802;10.332;2023-05-19T03:14:28;101241.34;;;19.29;55.94
78123;BME280;67376;44.802;10.332;2023-05-19T03:16:54;101241.34;;;19.29;55.19
78123;BME280;67376;44.802;10.332;2023-05-19T03:19:20;101232.38;;;19.29;55.81
78123;BME280;67376;44.802;10.332;2023-05-19T03:21:45;101239.69;;;19.28;55.26
78123;BME280;67376;44.802;10.332;2023-05-19T03:24:11;101234.25;;;19.28;56.10
78123;BME280;67376;44.802;10.332;2023-05-19T03:26:37;101242.38;;;19.28;56.01
78123;BME280;67376;44.802;10.332;2023-05-19T03:29:02;101240.72;;;19.27;56.13
78123;BME280;67376;44.802;10.332;2023-05-19T03:31:28;101243.44;;;19.27;55.84
78123;BME280;67376;44.802;10.332;2023-05-19T03:33:55;101246.13;;;19.27;55.62
78123;BME280;67376;44.802;10.332;2023-05-19T03:36:22;101253.22;;;19.28;56.20
78123;BME280;67376;44.802;10.332;2023-05-19T03:38:48;101252.38;;;19.28;56.06
78123;BME280;67376;44.802;10.332;2023-05-19T03:41:13;101256.75;;;19.29;55.70
78123;BME280;67376;44.802;10.332;2023-05-19T03:43:39;101259.47;;;19.29;55.68
78123;BME280;67376;44.802;10.332;2023-05-19T03:46:04;101261.34;;;19.28;55.70
78123;BME280;67376;44.802;10.332;2023-05-19T03:48:30;101261.34;;;19.28;55.82
78123;BME280;67376;44.802;10.332;2023-05-19T03:50:55;101262.16;;;19.29;55.52
78123;BME280;67376;44.802;10.332;2023-05-19T03:53:22;101267.78;;;19.27;55.19
78123;BME280;67376;44.802;10.332;2023-05-19T03:55:47;101262.38;;;19.27;56.11
78123;BME280;67376;44.802;10.332;2023-05-19T03:58:14;101266.97;;;19.27;55.73
78123;BME280;67376;44.802;10.332;2023-05-19T04:00:40;101266.13;;;19.26;55.69
78123;BME280;67376;44.802;10.332;2023-05-19T04:03:06;101267.78;;;19.27;55.12
78123;BME280;67376;44.802;10.332;2023-05-19T04:05:32;101268.63;;;19.28;56.01
78123;BME280;67376;44.802;10.332;2023-05-19T04:07:58;101273.22;;;19.27;55.48
78123;BME280;67376;44.802;10.332;2023-05-19T04:10:24;101283.19;;;19.27;55.05
78123;BME280;67376;44.802;10.332;2023-05-19T04:12:49;101286.75;;;19.27;55.09
78123;BME280;67376;44.802;10.332;2023-05-19T04:15:15;101286.75;;;19.27;55.37
78123;BME280;67376;44.802;10.332;2023-05-19T04:17:40;101288.41;;;19.28;55.21
78123;BME280;67376;44.802;10.332;2023-05-19T04:20:06;101289.44;;;19.27;56.02
78123;BME280;67376;44.802;10.332;2023-05-19T04:22:32;101286.75;;;19.27;55.17
78123;BME280;67376;44.802;10.332;2023-05-19T04:24:57;101294.03;;;19.27;55.82
78123;BME280;67376;44.802;10.332;2023-05-19T04:27:23;101297.56;;;19.27;55.72
78123;BME280;67376;44.802;10.332;2023-05-19T04:29:50;101294.03;;;19.27;55.27
78123;BME280;67376;44.802;10.332;2023-05-19T04:32:15;101305.69;;;19.27;55.63
78123;BME280;67376;44.802;10.332;2023-05-19T04:34:43;101301.94;;;19.28;56.04
78123;BME280;67376;44.802;10.332;2023-05-19T04:37:12;101296.97;;;19.25;55.14
78123;BME280;67376;44.802;10.332;2023-05-19T04:39:39;101304.03;;;19.26;56.20
78123;BME280;67376;44.802;10.332;2023-05-19T04:42:08;101304.25;;;19.25;55.81
78123;BME280;67376;44.802;10.332;2023-05-19T04:44:34;101311.31;;;19.26;55.72
78123;BME280;67376;44.802;10.332;2023-05-19T04:47:00;101317.34;;;19.28;56.17
78123;BME280;67376;44.802;10.332;2023-05-19T04:49:25;101308.41;;;19.27;55.32
78123;BME280;67376;44.802;10.332;2023-05-19T04:51:51;101310.28;;;19.27;56.25
78123;BME280;67376;44.802;10.332;2023-05-19T04:54:17;101312.16;;;19.26;55.73
78123;BME280;67376;44.802;10.332;2023-05-19T04:56:42;101303.00;;;19.27;55.67
78123;BME280;67376;44.802;10.332;2023-05-19T04:59:08;101306.75;;;19.26;55.83
78123;BME280;67376;44.802;10.332;2023-05-19T05:01:34;101310.28;;;19.27;56.04
78123;BME280;67376;44.802;10.332;2023-05-19T05:04:04;101313.81;;;19.27;55.89
78123;BME280;67376;44.802;10.332;2023-05-19T05:06:30;101311.31;;;19.26;55.43
78123;BME280;67376;44.802;10.332;2023-05-19T05:08:55;101314.03;;;19.26;55.71
78123;BME280;67376;44.802;10.332;2023-05-19T05:11:21;101317.56;;;19.26;55.76
78123;BME280;67376;44.802;10.332;2023-05-19T05:13:47;101305.50;;;19.22;55.64
78123;BME280;67376;44.802;10.332;2023-05-19T05:16:13;101315.91;;;19.25;55.88
78123;BME280;67376;44.802;10.332;2023-05-19T05:18:39;101318.41;;;19.27;55.48
78123;BME280;67376;44.802;10.332;2023-05-19T05:21:05;101317.56;;;19.26;55.45
78123;BME280;67376;44.802;10.332;2023-05-19T05:23:31;101322.38;;;19.24;55.40
78123;BME280;67376;44.802;10.332;2023-05-19T05:25:57;101318.63;;;19.25;56.25
78123;BME280;67376;44.802;10.332;2023-05-19T05:28:22;101315.91;;;19.25;55.36
78123;BME280;67376;44.802;10.332;2023-05-19T05:30:48;101318.41;;;19.27;56.41
78123;BME280;67376;44.802;10.332;2023-05-19T05:33:14;101322.97;;;19.26;55.51
78123;BME280;67376;44.802;10.332;2023-05-19T05:35:40;101314.47;;;19.23;55.91
78123;BME280;67376;44.802;10.332;2023-05-19T05:38:06;101318.63;;;19.25;56.23
78123;BME280;67376;44.802;10.332;2023-05-19T05:40:32;101322.16;;;19.26;55.92
78123;BME280;67376;44.802;10.332;2023-05-19T05:42:57;101314.03;;;19.26;56.25
78123;BME280;67376;44.802;10.332;2023-05-19T05:45:25;101315.91;;;19.25;56.30
78123;BME280;67376;44.802;10.332;2023-05-19T05:47:51;101308.63;;;19.26;56.23
78123;BME280;67376;44.802;10.332;2023-05-19T05:50:17;101313.81;;;19.27;56.19
78123;BME280;67376;44.802;10.332;2023-05-19T05:52:46;101309.03;;;19.23;56.10
78123;BME280;67376;44.802;10.332;2023-05-19T05:55:12;101320.28;;;19.26;56.38
78123;BME280;67376;44.802;10.332;2023-05-19T05:57:38;101313.19;;;19.25;56.26
78123;BME280;67376;44.802;10.332;2023-05-19T06:00:06;101319.44;;;19.26;55.89
78123;BME280;67376;44.802;10.332;2023-05-19T06:02:38;101316.75;;;19.26;56.40
78123;BME280;67376;44.802;10.332;2023-05-19T06:05:04;101321.31;;;19.25;56.06
78123;BME280;67376;44.802;10.332;2023-05-19T06:07:29;101317.56;;;19.26;55.53
78123;BME280;67376;44.802;10.332;2023-05-19T06:09:55;101318.00;;;19.23;55.87
78123;BME280;67376;44.802;10.332;2023-05-19T06:12:20;101320.28;;;19.26;55.48
78123;BME280;67376;44.802;10.332;2023-05-19T06:14:47;101327.56;;;19.26;56.36
78123;BME280;67376;44.802;10.332;2023-05-19T06:17:12;101326.72;;;19.25;55.32
78123;BME280;67376;44.802;10.332;2023-05-19T06:19:37;101335.69;;;19.26;56.40
78123;BME280;67376;44.802;10.332;2023-05-19T06:22:03;101328.59;;;19.25;56.28
78123;BME280;67376;44.802;10.332;2023-05-19T06:24:28;101330.28;;;19.26;55.99
78123;BME280;67376;44.802;10.332;2023-05-19T06:26:53;101326.72;;;19.25;56.15
78123;BME280;67376;44.802;10.332;2023-05-19T06:29:19;101334.03;;;19.25;55.58
78123;BME280;67376;44.802;10.332;2023-05-19T06:31:44;101337.56;;;19.25;55.34
78123;BME280;67376;44.802;10.332;2023-05-19T06:34:10;101342.16;;;19.25;55.40
78123;BME280;67376;44.802;10.332;2023-05-19T06:36:36;101337.56;;;19.25;55.21
78123;BME280;67376;44.802;10.332;2023-05-19T06:39:02;101335.91;;;19.24;55.53
78123;BME280;67376;44.802;10.332;2023-05-19T06:41:27;101333.19;;;19.24;55.93
78123;BME280;67376;44.802;10.332;2023-05-19T06:43:53;101334.84;;;19.25;56.06
78123;BME280;67376;44.802;10.332;2023-05-19T06:46:18;101342.16;;;19.25;55.79
78123;BME280;67376;44.802;10.332;2023-05-19T06:48:43;101342.16;;;19.25;56.19
78123;BME280;67376;44.802;10.332;2023-05-19T06:51:09;101343.19;;;19.24;55.92
78123;BME280;67376;44.802;10.332;2023-05-19T06:53:34;101345.47;;;19.27;56.38
78123;BME280;67376;44.802;10.332;2023-05-19T06:56:00;101345.69;;;19.25;55.53
78123;BME280;67376;44.802;10.332;2023-05-19T06:58:25;101353.81;;;19.25;56.42
78123;BME280;67376;44.802;10.332;2023-05-19T07:00:51;101349.66;;;19.23;56.24
78123;BME280;67376;44.802;10.332;2023-05-19T07:03:16;101344.84;;;19.25;55.83
78123;BME280;67376;44.802;10.332;2023-05-19T07:05:41;101346.50;;;19.26;56.28
78123;BME280;67376;44.802;10.332;2023-05-19T07:08:07;101344.84;;;19.25;55.40
78123;BME280;67376;44.802;10.332;2023-05-19T07:10:32;101344.84;;;19.25;55.92
78123;BME280;67376;44.802;10.332;2023-05-19T07:12:58;101347.56;;;19.25;55.51
78123;BME280;67376;44.802;10.332;2023-05-19T07:15:23;101346.13;;;19.22;55.65
78123;BME280;67376;44.802;10.332;2023-05-19T07:17:48;101349.44;;;19.24;55.67
78123;BME280;67376;44.802;10.332;2023-05-19T07:20:14;101352.16;;;19.24;55.81
78123;BME280;67376;44.802;10.332;2023-05-19T07:22:39;101351.31;;;19.24;56.09
78123;BME280;67376;44.802;10.332;2023-05-19T07:25:08;101351.31;;;19.24;55.56
78123;BME280;67376;44.802;10.332;2023-05-19T07:27:33;101341.31;;;19.24;55.68
78123;BME280;67376;44.802;10.332;2023-05-19T07:29:58;101335.91;;;19.24;56.42
78123;BME280;67376;44.802;10.332;2023-05-19T07:32:24;101342.34;;;19.23;55.48
78123;BME280;67376;44.802;10.332;2023-05-19T07:34:50;101344.03;;;19.24;55.35
78123;BME280;67376;44.802;10.332;2023-05-19T07:37:15;101344.22;;;19.23;55.68
78123;BME280;67376;44.802;10.332;2023-05-19T07:39:41;101345.91;;;19.24;55.89
78123;BME280;67376;44.802;10.332;2023-05-19T07:42:06;101343.19;;;19.24;55.50
78123;BME280;67376;44.802;10.332;2023-05-19T07:44:31;101349.44;;;19.24;55.34
78123;BME280;67376;44.802;10.332;2023-05-19T07:46:57;101341.31;;;19.24;55.87
78123;BME280;67376;44.802;10.332;2023-05-19T07:49:22;101345.91;;;19.24;55.89
78123;BME280;67376;44.802;10.332;2023-05-19T07:51:48;101344.22;;;19.23;56.35
78123;BME280;67376;44.802;10.332;2023-05-19T07:54:13;101346.94;;;19.23;56.00
78123;BME280;67376;44.802;10.332;2023-05-19T07:56:39;101341.31;;;19.24;55.30
78123;BME280;67376;44.802;10.332;2023-05-19T07:59:04;101342.16;;;19.25;56.11
78123;BME280;67376;44.802;10.332;2023-05-19T08:01:32;101338.81;;;19.23;55.31
78123;BME280;67376;44.802;10.332;2023-05-19T08:03:58;101339.03;;;19.21;56.07
78123;BME280;67376;44.802;10.332;2023-05-19T08:06:23;101343.41;;;19.22;56.42
78123;BME280;67376;44.802;10.332;2023-05-19T08:08:49;101341.53;;;19.23;56.22
78123;BME280;67376;44.802;10.332;2023-05-19T08:11:14;101339.66;;;19.23;56.32
78123;BME280;67376;44.802;10.332;2023-05-19T08:13:40;101339.66;;;19.23;56.08
78123;BME280;67376;44.802;10.332;2023-05-19T08:16:05;101336.31;;;19.21;56.08
78123;BME280;67376;44.802;10.332;2023-05-19T08:18:31;101345.28;;;19.22;55.68
78123;BME280;67376;44.802;10.332;2023-05-19T08:20:56;101341.75;;;19.21;56.28
78123;BME280;67376;44.802;10.332;2023-05-19T08:23:22;101334.25;;;19.23;55.55
78123;BME280;67376;44.802;10.332;2023-05-19T08:25:47;101335.06;;;19.24;55.26
78123;BME280;67376;44.802;10.332;2023-05-19T08:28:13;101342.34;;;19.23;55.55
78123;BME280;67376;44.802;10.332;2023-05-19T08:30:38;101339.88;;;19.22;56.16
78123;BME280;67376;44.802;10.332;2023-05-19T08:33:04;101346.13;;;19.22;55.89
78123;BME280;67376;44.802;10.332;2023-05-19T08:35:29;101342.78;;;19.20;56.12
78123;BME280;67376;44.802;10.332;2023-05-19T08:37:55;101344.22;;;19.23;55.72
78123;BME280;67376;44.802;10.332;2023-05-19T08:40:21;101348.81;;;19.22;55.88
78123;BME280;67376;44.802;10.332;2023-05-19T08:42:47;101349.84;;;19.21;55.90
78123;BME280;67376;44.802;10.332;2023-05-19T08:45:13;101349.84;;;19.21;55.67
78123;BME280;67376;44.802;10.332;2023-05-19T08:47:40;101349.03;;;19.21;56.48
78123;BME280;67376;44.802;10.332;2023-05-19T08:50:07;101349.84;;;19.21;55.49
78123;BME280;67376;44.802;10.332;2023-05-19T08:55:07;101353.63;;;19.20;56.54
78123;BME280;67376;44.802;10.332;2023-05-19T08:57:35;101348.19;;;19.20;56.13
78123;BME280;67376;44.802;10.332;2023-05-19T09:00:02;101341.13;;;19.19;56.02
78123;BME280;67376;44.802;10.332;2023-05-19T09:02:31;101350.91;;;19.20;56.46
78123;BME280;67376;44.802;10.332;2023-05-19T09:04:57;101350.91;;;19.20;55.47
78123;BME280;67376;44.802;10.332;2023-05-19T09:07:23;101351.53;;;19.22;55.61
78123;BME280;67376;44.802;10.332;2023-05-19T09:09:49;101355.28;;;19.21;56.46
78123;BME280;67376;44.802;10.332;2023-05-19T09:12:15;101353.63;;;19.20;55.67
78123;BME280;67376;44.802;10.332;2023-05-19T09:14:40;101356.31;;;19.20;55.66
78123;BME280;67376;44.802;10.332;2023-05-19T09:17:06;101356.09;;;19.22;55.84
78123;BME280;67376;44.802;10.332;2023-05-19T09:19:31;101348.00;;;19.22;55.52
78123;BME280;67376;44.802;10.332;2023-05-19T09:21:58;101349.84;;;19.21;56.20
78123;BME280;67376;44.802;10.332;2023-05-19T09:24:30;101349.03;;;19.21;55.67
78123;BME280;67376;44.802;10.332;2023-05-19T09:26:57;101353.41;;;19.22;55.55
78123;BME280;67376;44.802;10.332;2023-05-19T09:29:23;101350.69;;;19.22;56.08
78123;BME280;67376;44.802;10.332;2023-05-19T09:31:53;101351.53;;;19.22;55.52
78123;BME280;67376;44.802;10.332;2023-05-19T09:34:25;101340.06;;;19.20;56.20
78123;BME280;67376;44.802;10.332;2023-05-19T09:36:53;101347.16;;;19.21;56.16
78123;BME280;67376;44.802;10.332;2023-05-19T09:39:20;101340.69;;;19.22;56.46
78123;BME280;67376;44.802;10.332;2023-05-19T09:41:46;101339.88;;;19.22;56.47
78123;BME280;67376;44.802;10.332;2023-05-19T09:44:22;101345.28;;;19.22;55.81
78123;BME280;67376;44.802;10.332;2023-05-19T09:46:51;101343.41;;;19.22;56.51
78123;BME280;67376;44.802;10.332;2023-05-19T09:49:21;101330.69;;;19.23;55.59
78123;BME280;67376;44.802;10.332;2023-05-19T09:51:48;101332.56;;;19.22;56.36
78123;BME280;67376;44.802;10.332;2023-05-19T09:54:14;101339.88;;;19.22;56.55
78123;BME280;67376;44.802;10.332;2023-05-19T09:56:40;101337.16;;;19.22;56.54
78123;BME280;67376;44.802;10.332;2023-05-19T09:59:05;101330.69;;;19.23;55.82
78123;BME280;67376;44.802;10.332;2023-05-19T10:01:31;101343.63;;;19.21;55.86
78123;BME280;67376;44.802;10.332;2023-05-19T10:04:02;101340.69;;;19.22;55.80
78123;BME280;67376;44.802;10.332;2023-05-19T10:06:28;101339.88;;;19.22;55.62
78123;BME280;67376;44.802;10.332;2023-05-19T10:08:55;101344.44;;;19.21;56.21
78123;BME280;67376;44.802;10.332;2023-05-19T10:11:21;101341.53;;;19.23;56.17
78123;BME280;67376;44.802;10.332;2023-05-19T10:13:49;101337.59;;;19.19;56.50
78123;BME280;67376;44.802;10.332;2023-05-19T10:16:16;101342.38;;;19.17;57.39
78123;BME280;67376;44.802;10.332;2023-05-19T10:18:42;101341.75;;;19.14;56.97
78123;BME280;67376;44.802;10.332;2023-05-19T10:21:08;101349.88;;;19.14;56.84
78123;BME280;67376;44.802;10.332;2023-05-19T10:23:33;101335.09;;;19.10;57.32
78123;BME280;67376;44.802;10.332;2023-05-19T10:26:00;101338.00;;;19.16;56.91
78123;BME280;67376;44.802;10.332;2023-05-19T10:28:33;101335.91;;;19.18;57.57
78123;BME280;67376;44.802;10.332;2023-05-19T10:31:00;101336.13;;;19.16;56.86
78123;BME280;67376;44.802;10.332;2023-05-19T10:39:04;101330.91;;;19.21;61.18
78123;BME280;67376;44.802;10.332;2023-05-19T10:41:40;101337.59;;;19.19;60.67
78123;BME280;67376;44.802;10.332;2023-05-19T10:44:22;101335.50;;;19.14;62.15
78123;BME280;67376;44.802;10.332;2023-05-19T10:46:53;101333.03;;;19.12;61.43
78123;BME280;67376;44.802;10.332;2023-05-19T10:49:19;101330.53;;;19.11;60.31
78123;BME280;67376;44.802;10.332;2023-05-19T10:51:45;101333.84;;;19.13;60.28
78123;BME280;67376;44.802;10.332;2023-05-19T10:54:11;101326.56;;;19.13;59.41
78123;BME280;67376;44.802;10.332;2023-05-19T10:56:42;101332.81;;;19.14;59.75
78123;BME280;67376;44.802;10.332;2023-05-19T10:59:29;101328.66;;;19.11;59.91
78123;BME280;67376;44.802;10.332;2023-05-19T11:01:56;101323.03;;;19.13;59.41
78123;BME280;67376;44.802;10.332;2023-05-19T11:04:38;101325.53;;;19.14;58.78
78123;BME280;67376;44.802;10.332;2023-05-19T11:07:04;101331.75;;;19.15;59.58
78123;BME280;67376;44.802;10.332;2023-05-19T11:09:30;101331.56;;;19.17;60.07
78123;BME280;67376;44.802;10.332;2023-05-19T11:12:01;101323.44;;;19.17;59.11
78123;BME280;67376;44.802;10.332;2023-05-19T11:14:27;101320.94;;;19.15;59.37
78123;BME280;67376;44.802;10.332;2023-05-19T11:16:57;101329.06;;;19.15;62.09
78123;BME280;67376;44.802;10.332;2023-05-19T11:19:30;101318.66;;;19.12;62.14
78123;BME280;67376;44.802;10.332;2023-05-19T11:24:35;101326.38;;;19.08;63.07
78123;BME280;67376;44.802;10.332;2023-05-19T11:29:52;101324.72;;;19.07;60.80
78123;BME280;67376;44.802;10.332;2023-05-19T11:32:24;101322.63;;;19.09;62.23
78123;BME280;67376;44.802;10.332;2023-05-19T11:34:50;101320.53;;;19.11;61.93
78123;BME280;67376;44.802;10.332;2023-05-19T11:37:16;101313.03;;;19.13;60.48
78123;BME280;67376;44.802;10.332;2023-05-19T11:39:44;101313.84;;;19.14;60.98
78123;BME280;67376;44.802;10.332;2023-05-19T11:42:10;101312.81;;;19.15;61.19
78123;BME280;67376;44.802;10.332;2023-05-19T11:44:35;101315.53;;;19.15;59.85
78123;BME280;67376;44.802;10.332;2023-05-19T11:47:03;101301.78;;;19.17;60.28
78123;BME280;67376;44.802;10.332;2023-05-19T11:49:28;101314.25;;;19.18;59.99
78123;BME280;67376;44.802;10.332;2023-05-19T11:51:54;101308.84;;;19.18;60.44
78123;BME280;67376;44.802;10.332;2023-05-19T11:54:19;101318.84;;;19.17;59.72
78123;BME280;67376;44.802;10.332;2023-05-19T11:56:45;101309.91;;;19.17;60.46
78123;BME280;67376;44.802;10.332;2023-05-19T11:59:10;101308.03;;;19.17;60.39
78123;BME280;67376;44.802;10.332;2023-05-19T12:01:36;101317.81;;;19.18;60.51
78123;BME280;67376;44.802;10.332;2023-05-19T12:04:06;101300.13;;;19.16;59.85
78123;BME280;67376;44.802;10.332;2023-05-19T12:06:32;101315.09;;;19.18;59.58
78123;BME280;67376;44.802;10.332;2023-05-19T12:08:58;101312.59;;;19.17;59.74
78123;BME280;67376;44.802;10.332;2023-05-19T12:11:24;101302.00;;;19.15;60.47
78123;BME280;67376;44.802;10.332;2023-05-19T12:13:54;101303.66;;;19.16;59.55
78123;BME280;67376;44.802;10.332;2023-05-19T12:16:22;101302.00;;;19.15;60.14
78123;BME280;67376;44.802;10.332;2023-05-19T12:18:48;101308.84;;;19.18;60.08
78123;BME280;67376;44.802;10.332;2023-05-19T12:21:13;101305.09;;;19.19;59.40
78123;BME280;67376;44.802;10.332;2023-05-19T12:23:40;101308.63;;;19.19;60.13
78123;BME280;67376;44.802;10.332;2023-05-19T12:26:06;101298.25;;;19.16;60.05
78123;BME280;67376;44.802;10.332;2023-05-19T12:28:31;101302.41;;;19.19;59.78
78123;BME280;67376;44.802;10.332;2023-05-19T12:30:57;101304.06;;;19.20;59.81
78123;BME280;67376;44.802;10.332;2023-05-19T12:33:23;101306.97;;;19.18;58.89
78123;BME280;67376;44.802;10.332;2023-05-19T12:35:49;101299.91;;;19.17;59.49
78123;BME280;67376;44.802;10.332;2023-05-19T12:38:14;101295.09;;;19.19;59.25
78123;BME280;67376;44.802;10.332;2023-05-19T12:40:41;101297.81;;;19.19;59.02
78123;BME280;67376;44.802;10.332;2023-05-19T12:43:07;101300.72;;;19.18;59.19
78123;BME280;67376;44.802;10.332;2023-05-19T12:45:38;101294.50;;;19.17;59.77
78123;BME280;67376;44.802;10.332;2023-05-19T12:48:10;101296.56;;;19.15;59.88
78123;BME280;67376;44.802;10.332;2023-05-19T12:50:36;101294.50;;;19.17;60.09
78123;BME280;67376;44.802;10.332;2023-05-19T12:53:02;101295.75;;;19.14;59.80
78123;BME280;67376;44.802;10.332;2023-05-19T12:55:27;101291.16;;;19.15;59.07
78123;BME280;67376;44.802;10.332;2023-05-19T12:57:53;101299.06;;;19.17;59.72
78123;BME280;67376;44.802;10.332;2023-05-19T13:00:23;101288.25;;;19.17;59.00
78123;BME280;67376;44.802;10.332;2023-05-19T13:03:04;101293.44;;;19.18;59.52
78123;BME280;67376;44.802;10.332;2023-05-19T13:05:32;101286.16;;;19.19;59.71